createdAt,value
2024-03-12T00:05:07.490Z,995.8
2024-03-12T00:20:28.450Z,995.8
2024-03-12T00:35:49.418Z,995.9
2024-03-12T00:51:10.386Z,995.9
2024-03-12T01:06:31.351Z,995.9
2024-03-12T01:21:52.315Z,996
2024-03-12T01:37:13.293Z,996
2024-03-12T01:52:34.243Z,996.1
2024-03-12T02:07:55.231Z,996.1
2024-03-12T02:23:16.177Z,996.3
2024-03-12T02:38:37.182Z,996.5
2024-03-12T02:53:57.150Z,996.4
2024-03-12T03:09:18.132Z,996.5
2024-03-12T03:24:39.107Z,996.6
2024-03-12T03:40:00.054Z,996.7
2024-03-12T03:55:21.037Z,996.7
2024-03-12T04:10:42.001Z,996.8
2024-03-12T04:26:02.933Z,996.9
2024-03-12T04:41:23.946Z,997.1
2024-03-12T04:56:44.864Z,997.3
2024-03-12T05:12:05.798Z,997.5
2024-03-12T05:27:26.763Z,997.7
2024-03-12T05:42:47.669Z,997.9
2024-03-12T05:58:08.598Z,998
2024-03-12T06:13:28.544Z,998.1
2024-03-12T06:28:49.482Z,998.2
2024-03-12T06:44:10.377Z,998.3
2024-03-12T06:59:31.329Z,998.4
2024-03-12T07:14:52.259Z,998.4
2024-03-12T07:30:13.191Z,998.5
2024-03-12T07:45:34.099Z,998.6
2024-03-12T08:00:55.028Z,998.7
2024-03-12T08:16:15.944Z,998.7
2024-03-12T08:31:36.847Z,998.7
2024-03-12T08:46:57.778Z,998.8
2024-03-12T09:02:18.682Z,998.8
2024-03-12T09:17:39.620Z,998.8
2024-03-12T09:32:59.544Z,998.9
2024-03-12T09:48:20.450Z,999
2024-03-12T10:03:41.365Z,999
2024-03-12T10:05:02.439Z,998.9
2024-03-12T10:06:23.478Z,999
2024-03-12T10:07:44.565Z,999
2024-03-12T10:09:05.648Z,999
2024-03-12T10:10:26.703Z,999
2024-03-12T10:11:47.770Z,999
2024-03-12T10:13:08.814Z,999
2024-03-12T10:14:29.909Z,999.1
2024-03-12T10:15:50.975Z,999.1
2024-03-12T10:17:12.003Z,999.1
2024-03-12T10:18:32.116Z,999.2
2024-03-12T10:19:53.180Z,999.2
2024-03-12T10:21:14.247Z,999.2
2024-03-12T10:22:35.309Z,999.2
2024-03-12T10:23:56.376Z,999.2
2024-03-12T10:25:17.415Z,999.2
2024-03-12T10:26:38.488Z,999.2
2024-03-12T10:27:59.573Z,999.2
2024-03-12T10:29:20.615Z,999.2
2024-03-12T10:30:41.688Z,999.2
2024-03-12T10:32:02.783Z,999.2
2024-03-12T10:33:23.860Z,999.2
2024-03-12T10:34:44.915Z,999.3
2024-03-12T10:36:05.006Z,999.3
2024-03-12T10:37:26.032Z,999.2
2024-03-12T10:38:47.123Z,999.3
2024-03-12T10:40:08.204Z,999.3
2024-03-12T10:41:29.265Z,999.3
2024-03-12T10:42:50.331Z,999.3
2024-03-12T10:44:11.402Z,999.3
2024-03-12T10:45:32.437Z,999.3
2024-03-12T10:46:53.502Z,999.3
2024-03-12T10:48:14.599Z,999.3
2024-03-12T10:49:35.673Z,999.3
2024-03-12T10:50:56.728Z,999.3
2024-03-12T10:52:17.801Z,999.3
2024-03-12T10:53:37.890Z,999.3
2024-03-12T10:54:58.925Z,999.3
2024-03-12T10:56:20.013Z,999.3
2024-03-12T10:57:41.067Z,999.3
2024-03-12T10:59:02.147Z,999.3
2024-03-12T11:00:23.187Z,999.3
2024-03-12T11:01:44.256Z,999.3
2024-03-12T11:03:05.350Z,999.2
2024-03-12T11:04:26.428Z,999.2
2024-03-12T11:05:47.450Z,999.2
2024-03-12T11:07:08.521Z,999.2
2024-03-12T11:08:29.612Z,999.3
2024-03-12T11:09:50.674Z,999.3
2024-03-12T11:11:10.764Z,999.3
2024-03-12T11:12:31.835Z,999.3
2024-03-12T11:13:52.885Z,999.3
2024-03-12T11:15:13.935Z,999.3
2024-03-12T11:16:35.025Z,999.3
2024-03-12T11:19:17.154Z,999.3
2024-03-12T11:20:38.223Z,999.3
2024-03-12T11:21:59.277Z,999.3
2024-03-12T11:23:20.364Z,999.3
2024-03-12T11:24:41.000Z,999.3
2024-03-12T11:26:02.509Z,999.3
2024-03-12T11:27:23.572Z,999.3
2024-03-12T11:28:43.656Z,999.3
2024-03-12T11:30:04.720Z,999.3
2024-03-12T11:31:25.749Z,999.3
2024-03-12T11:32:46.836Z,999.2
2024-03-12T11:34:07.911Z,999.2
2024-03-12T11:35:28.968Z,999.2
2024-03-12T11:36:50.011Z,999.2
2024-03-12T11:38:11.000Z,999.2
2024-03-12T11:39:32.172Z,999.2
2024-03-12T11:40:53.205Z,999.2
2024-03-12T11:43:35.369Z,999.2
2024-03-12T11:44:56.437Z,999.2
2024-03-12T11:46:16.519Z,999.2
2024-03-12T11:47:37.573Z,999.2
2024-03-12T11:48:58.649Z,999.2
2024-03-12T11:50:19.714Z,999.2
2024-03-12T11:51:40.739Z,999.2
2024-03-12T11:53:01.839Z,999.2
2024-03-12T11:54:22.000Z,999.2
2024-03-12T11:55:43.968Z,999.2
2024-03-12T11:57:05.031Z,999.2
2024-03-12T11:59:47.174Z,999.2
2024-03-12T12:01:08.221Z,999.1
2024-03-12T12:02:29.000Z,999.1
2024-03-12T12:03:49.383Z,999.1
2024-03-12T12:05:10.000Z,999.1
2024-03-12T12:06:31.580Z,999.1
2024-03-12T12:07:52.627Z,999.1
2024-03-12T12:09:13.696Z,999.1
2024-03-12T12:10:34.767Z,999.1
2024-03-12T12:11:55.826Z,999.1
2024-03-12T12:13:16.902Z,999.1
2024-03-12T12:14:37.965Z,999.2
2024-03-12T12:15:59.001Z,999.2
2024-03-12T12:17:20.113Z,999.2
2024-03-12T12:18:41.180Z,999.2
2024-03-12T12:20:02.241Z,999.2
2024-03-12T12:21:22.326Z,999.2
2024-03-12T12:24:04.443Z,999.2
2024-03-12T12:25:25.523Z,999.2
2024-03-12T12:26:46.577Z,999.2
2024-03-12T12:28:07.642Z,999.2
2024-03-12T12:29:27.000Z,999.2
2024-03-12T12:30:48.814Z,999.2
2024-03-12T12:32:09.871Z,999.2
2024-03-12T12:33:30.947Z,999.2
2024-03-12T12:34:52.023Z,999.2
2024-03-12T12:36:13.091Z,999.2
2024-03-12T12:37:34.137Z,999.2
2024-03-12T12:40:16.267Z,999.2
2024-03-12T12:41:37.377Z,999.2
2024-03-12T12:42:58.427Z,999.2
2024-03-12T12:44:19.495Z,999.2
2024-03-12T12:45:40.564Z,999.2
2024-03-12T12:47:00.630Z,999.2
2024-03-12T12:48:21.683Z,999.2
2024-03-12T12:49:42.790Z,999.2
2024-03-12T12:51:03.816Z,999.2
2024-03-12T12:52:24.881Z,999.2
2024-03-12T12:53:45.945Z,999.3
2024-03-12T12:55:07.044Z,999.2
2024-03-12T12:56:28.110Z,999.2
2024-03-12T12:57:49.186Z,999.2
2024-03-12T12:59:10.243Z,999.2
2024-03-12T13:00:31.275Z,999.2
2024-03-12T13:01:52.376Z,999.3
2024-03-12T13:03:13.449Z,999.3
2024-03-12T13:04:34.508Z,999.3
2024-03-12T13:05:54.585Z,999.3
2024-03-12T13:07:15.625Z,999.3
2024-03-12T13:08:36.713Z,999.3
2024-03-12T13:11:18.862Z,999.3
2024-03-12T13:12:39.000Z,999.3
2024-03-12T13:14:00.984Z,999.3
2024-03-12T13:15:22.000Z,999.3
2024-03-12T13:16:43.120Z,999.3
2024-03-12T13:18:04.148Z,999.3
2024-03-12T13:19:25.214Z,999.3
2024-03-12T13:20:46.322Z,999.3
2024-03-12T13:22:07.390Z,999.3
2024-03-12T13:23:27.457Z,999.4
2024-03-12T13:24:48.491Z,999.4
2024-03-12T13:26:09.592Z,999.4
2024-03-12T13:28:51.702Z,999.4
2024-03-12T13:30:12.804Z,999.4
2024-03-12T13:31:33.861Z,999.4
2024-03-12T13:32:54.898Z,999.4
2024-03-12T13:34:15.957Z,999.4
2024-03-12T13:35:37.054Z,999.3
2024-03-12T13:36:58.000Z,999.4
2024-03-12T13:38:19.191Z,999.4
2024-03-12T13:39:40.258Z,999.4
2024-03-12T13:41:00.340Z,999.4
2024-03-12T13:42:21.402Z,999.4
2024-03-12T13:43:42.468Z,999.4
2024-03-12T13:45:03.544Z,999.4
2024-03-12T13:46:24.601Z,999.4
2024-03-12T13:47:45.666Z,999.4
2024-03-12T13:49:06.696Z,999.4
2024-03-12T13:50:27.798Z,999.4
2024-03-12T13:53:09.000Z,999.4
2024-03-12T13:54:31.007Z,999.4
2024-03-12T13:55:52.030Z,999.4
2024-03-12T13:57:13.129Z,999.4
2024-03-12T13:58:33.167Z,999.5
2024-03-12T13:59:54.271Z,999.4
2024-03-12T14:01:15.344Z,999.5
2024-03-12T14:02:36.376Z,999.5
2024-03-12T14:03:57.481Z,999.5
2024-03-12T14:05:18.545Z,999.5
2024-03-12T14:06:39.606Z,999.5
2024-03-12T14:08:00.635Z,999.5
2024-03-12T14:09:21.709Z,999.6
2024-03-12T14:10:42.813Z,999.6
2024-03-12T14:12:03.871Z,999.6
2024-03-12T14:13:24.900Z,999.6
2024-03-12T14:14:45.979Z,999.6
2024-03-12T14:16:06.091Z,999.6
2024-03-12T14:17:27.151Z,999.6
2024-03-12T14:18:48.214Z,999.6
2024-03-12T14:20:09.000Z,999.6
2024-03-12T14:21:30.362Z,999.6
2024-03-12T14:22:51.427Z,999.6
2024-03-12T14:24:12.485Z,999.6
2024-03-12T14:25:33.559Z,999.6
2024-03-12T14:26:54.617Z,999.6
2024-03-12T14:28:15.684Z,999.6
2024-03-12T14:29:36.713Z,999.6
2024-03-12T14:30:57.809Z,999.6
2024-03-12T14:32:18.885Z,999.6
2024-03-12T14:33:38.955Z,999.6
2024-03-12T14:35:00.025Z,999.6
2024-03-12T14:36:21.093Z,999.6
2024-03-12T14:37:42.123Z,999.6
2024-03-12T14:39:03.232Z,999.6
2024-03-12T14:40:24.286Z,999.6
2024-03-12T14:41:45.351Z,999.6
2024-03-12T14:43:06.422Z,999.6
2024-03-12T14:44:27.488Z,999.7
2024-03-12T14:45:48.552Z,999.7
2024-03-12T14:47:09.617Z,999.7
2024-03-12T14:48:30.691Z,999.7
2024-03-12T14:49:51.753Z,999.7
2024-03-12T14:51:11.830Z,999.7
2024-03-12T14:52:32.902Z,999.7
2024-03-12T14:53:53.969Z,999.7
2024-03-12T14:55:15.006Z,999.7
2024-03-12T14:56:36.109Z,999.7
2024-03-12T14:57:57.189Z,999.8
2024-03-12T14:59:18.244Z,999.8
2024-03-12T15:00:39.306Z,999.8
2024-03-12T15:02:00.342Z,999.8
2024-03-12T15:03:21.408Z,999.8
2024-03-12T15:04:42.513Z,999.8
2024-03-12T15:06:03.573Z,999.8
2024-03-12T15:07:24.639Z,999.8
2024-03-12T15:08:44.726Z,999.8
2024-03-12T15:10:05.787Z,999.8
2024-03-12T15:11:26.819Z,999.8
2024-03-12T15:12:47.886Z,999.8
2024-03-12T15:14:08.985Z,999.8
2024-03-12T15:15:30.053Z,999.8
2024-03-12T15:16:51.119Z,999.8
2024-03-12T15:18:12.177Z,999.8
2024-03-12T15:19:33.248Z,999.8
2024-03-12T15:20:54.271Z,999.8
2024-03-12T15:22:15.372Z,999.8
2024-03-12T15:23:36.457Z,999.8
2024-03-12T15:24:57.506Z,999.9
2024-03-12T15:26:17.616Z,999.9
2024-03-12T15:27:38.663Z,999.9
2024-03-12T15:28:59.732Z,999.9
2024-03-12T15:30:20.804Z,999.9
2024-03-12T15:31:41.867Z,999.9
2024-03-12T15:33:02.944Z,999.9
2024-03-12T15:34:24.005Z,999.9
2024-03-12T15:35:45.058Z,999.9
2024-03-12T15:37:06.095Z,999.9
2024-03-12T15:38:27.198Z,1000
2024-03-12T15:39:48.258Z,1000
2024-03-12T15:41:09.321Z,1000
2024-03-12T15:42:30.391Z,1000
2024-03-12T15:43:50.493Z,1000
2024-03-12T15:45:11.551Z,1000
2024-03-12T15:46:32.613Z,1000
2024-03-12T15:47:53.688Z,1000
2024-03-12T15:49:14.744Z,1000
2024-03-12T15:50:35.809Z,1000
2024-03-12T15:51:56.870Z,1000
2024-03-12T15:53:17.901Z,1000
2024-03-12T15:54:38.959Z,1000
2024-03-12T15:56:00.068Z,1000
2024-03-12T15:57:21.140Z,1000
2024-03-12T15:58:42.205Z,1000
2024-03-12T16:00:03.281Z,1000.1
2024-03-12T16:01:23.354Z,1000.1
2024-03-12T16:02:44.422Z,1000.1
2024-03-12T16:04:05.484Z,1000.1
2024-03-12T16:05:26.548Z,1000.1
2024-03-12T16:06:47.621Z,1000.1
2024-03-12T16:08:08.694Z,1000.1
2024-03-12T16:09:29.750Z,1000.1
2024-03-12T16:10:50.818Z,1000.1
2024-03-12T16:12:11.886Z,1000.1
2024-03-12T16:13:32.944Z,1000.2
2024-03-12T16:14:54.026Z,1000.2
2024-03-12T16:16:15.088Z,1000.2
2024-03-12T16:17:36.146Z,1000.2
2024-03-12T16:18:56.183Z,1000.2
2024-03-12T16:21:38.354Z,1000.2
2024-03-12T16:22:59.388Z,1000.2
2024-03-12T16:24:20.452Z,1000.3
2024-03-12T16:25:41.573Z,1000.3
2024-03-12T16:27:02.623Z,1000.3
2024-03-12T16:28:23.687Z,1000.3
2024-03-12T16:29:44.771Z,1000.3
2024-03-12T16:31:05.823Z,1000.3
2024-03-12T16:32:26.862Z,1000.3
2024-03-12T16:33:47.978Z,1000.3
2024-03-12T16:35:08.983Z,1000.3
2024-03-12T16:36:29.117Z,1000.3
2024-03-12T16:37:50.176Z,1000.3
2024-03-12T16:39:11.258Z,1000.3
2024-03-12T16:40:32.307Z,1000.3
2024-03-12T16:41:53.378Z,1000.3
2024-03-12T16:43:14.433Z,1000.3
2024-03-12T16:44:35.513Z,1000.4
2024-03-12T16:45:56.526Z,1000.4
2024-03-12T16:47:17.593Z,1000.4
2024-03-12T16:48:38.715Z,1000.4
2024-03-12T16:49:59.777Z,1000.4
2024-03-12T16:51:20.844Z,1000.4
2024-03-12T16:52:41.899Z,1000.4
2024-03-12T16:54:01.992Z,1000.4
2024-03-12T16:55:23.062Z,1000.4
2024-03-12T16:56:44.116Z,1000.4
2024-03-12T16:58:05.190Z,1000.4
2024-03-12T16:59:26.252Z,1000.4
2024-03-12T17:00:46.335Z,1000.5
2024-03-12T17:02:07.416Z,1000.5
2024-03-12T17:03:28.470Z,1000.5
2024-03-12T17:04:49.534Z,1000.5
2024-03-12T17:06:10.610Z,1000.5
2024-03-12T17:07:31.665Z,1000.6
2024-03-12T17:08:52.734Z,1000.6
2024-03-12T17:10:13.800Z,1000.6
2024-03-12T17:11:34.862Z,1000.6
2024-03-12T17:12:55.894Z,1000.6
2024-03-12T17:14:17.005Z,1000.6
2024-03-12T17:15:38.068Z,1000.6
2024-03-12T17:16:59.130Z,1000.6
2024-03-12T17:18:19.209Z,1000.6
2024-03-12T17:19:40.337Z,1000.6
2024-03-12T17:21:01.437Z,1000.6
2024-03-12T17:22:22.545Z,1000.6
2024-03-12T17:23:43.660Z,1000.6
2024-03-12T17:25:04.750Z,1000.6
2024-03-12T17:26:25.777Z,1000.6
2024-03-12T17:27:46.884Z,1000.6
2024-03-12T17:29:07.991Z,1000.6
2024-03-12T17:30:29.052Z,1000.6
2024-03-12T17:31:50.178Z,1000.7
2024-03-12T17:33:11.285Z,1000.7
2024-03-12T17:34:32.381Z,1000.7
2024-03-12T17:35:52.511Z,1000.7
2024-03-12T17:37:13.631Z,1000.7
2024-03-12T17:38:34.724Z,1000.7
2024-03-12T17:39:55.831Z,1000.7
2024-03-12T17:41:16.939Z,1000.7
2024-03-12T17:42:38.048Z,1000.7
2024-03-12T17:43:59.157Z,1000.7
2024-03-12T17:45:20.281Z,1000.7
2024-03-12T17:46:41.386Z,1000.8
2024-03-12T17:48:02.494Z,1000.8
2024-03-12T17:49:23.596Z,1000.8
2024-03-12T17:50:44.712Z,1000.8
2024-03-12T17:52:05.813Z,1000.8
2024-03-12T17:53:26.925Z,1000.8
2024-03-12T17:54:47.053Z,1000.8
2024-03-12T17:56:08.155Z,1000.8
2024-03-12T17:57:29.282Z,1000.8
2024-03-12T17:58:50.380Z,1000.8
2024-03-12T18:01:32.596Z,1000.8
2024-03-12T18:02:53.721Z,1000.8
2024-03-12T18:04:14.813Z,1000.8
2024-03-12T18:06:57.033Z,1000.8
2024-03-12T18:08:18.150Z,1000.9
2024-03-12T18:09:39.255Z,1000.8
2024-03-12T18:11:00.373Z,1000.8
2024-03-12T18:12:20.497Z,1000.9
2024-03-12T18:13:41.586Z,1000.9
2024-03-12T18:15:02.714Z,1000.9
2024-03-12T18:16:23.818Z,1000.9
2024-03-12T18:17:44.919Z,1000.9
2024-03-12T18:19:06.044Z,1000.9
2024-03-12T18:20:27.140Z,1000.9
2024-03-12T18:21:48.249Z,1000.9
2024-03-12T18:23:09.356Z,1000.9
2024-03-12T18:24:30.463Z,1000.9
2024-03-12T18:25:51.566Z,1000.9
2024-03-12T18:27:12.668Z,1000.9
2024-03-12T18:28:33.783Z,1001
2024-03-12T18:29:53.918Z,1001
2024-03-12T18:31:15.017Z,1001
2024-03-12T18:32:36.121Z,1001
2024-03-12T18:33:57.236Z,1001
2024-03-12T18:35:18.359Z,1001
2024-03-12T18:36:39.000Z,1001
2024-03-12T18:38:00.573Z,1001
2024-03-12T18:39:21.667Z,1001
2024-03-12T18:40:42.787Z,1001
2024-03-12T18:42:03.889Z,1001
2024-03-12T18:43:25.007Z,1001
2024-03-12T18:44:46.119Z,1001
2024-03-12T18:46:07.218Z,1001
2024-03-12T18:47:27.339Z,1001
2024-03-12T18:48:48.444Z,1001
2024-03-12T18:50:09.554Z,1001.1
2024-03-12T18:51:30.679Z,1001.1
2024-03-12T18:52:51.775Z,1001.1
2024-03-12T18:54:12.880Z,1001.1
2024-03-12T18:55:33.987Z,1001.1
2024-03-12T18:58:16.213Z,1001.2
2024-03-12T18:59:37.319Z,1001.2
2024-03-12T19:00:58.423Z,1001.1
2024-03-12T19:02:19.516Z,1001.1
2024-03-12T19:03:40.626Z,1001.2
2024-03-12T19:05:00.756Z,1001.2
2024-03-12T19:06:21.866Z,1001.2
2024-03-12T19:07:42.966Z,1001.2
2024-03-12T19:09:04.090Z,1001.2
2024-03-12T19:10:25.182Z,1001.2
2024-03-12T19:11:46.289Z,1001.2
2024-03-12T19:13:07.417Z,1001.2
2024-03-12T19:14:28.504Z,1001.2
2024-03-12T19:15:49.619Z,1001.2
2024-03-12T19:17:10.000Z,1001.2
2024-03-12T19:18:31.840Z,1001.2
2024-03-12T19:19:52.949Z,1001.2
2024-03-12T19:21:14.044Z,1001.2
2024-03-12T19:22:34.180Z,1001.2
2024-03-12T19:23:55.273Z,1001.3
2024-03-12T19:25:16.387Z,1001.3
2024-03-12T19:26:37.497Z,1001.3
2024-03-12T19:27:58.588Z,1001.3
2024-03-12T19:29:19.702Z,1001.3
2024-03-12T19:30:40.000Z,1001.3
2024-03-12T19:32:01.925Z,1001.3
2024-03-12T19:33:23.030Z,1001.3
2024-03-12T19:34:44.143Z,1001.3
2024-03-12T19:36:05.255Z,1001.3
2024-03-12T19:37:26.355Z,1001.3
2024-03-12T19:38:47.481Z,1001.3
2024-03-12T19:40:07.604Z,1001.3
2024-03-12T19:41:28.706Z,1001.3
2024-03-12T19:42:49.823Z,1001.3
2024-03-12T19:44:10.920Z,1001.3
2024-03-12T19:45:32.039Z,1001.3
2024-03-12T19:46:53.140Z,1001.3
2024-03-12T19:48:14.252Z,1001.3
2024-03-12T19:49:35.366Z,1001.3
2024-03-12T19:50:56.460Z,1001.3
2024-03-12T19:52:17.580Z,1001.3
2024-03-12T19:53:38.674Z,1001.3
2024-03-12T19:54:59.794Z,1001.3
2024-03-12T19:56:20.907Z,1001.3
2024-03-12T19:57:41.000Z,1001.3
2024-03-12T19:59:02.144Z,1001.3
2024-03-12T20:00:23.246Z,1001.3
2024-03-12T20:01:44.357Z,1001.3
2024-03-12T20:03:05.471Z,1001.4
2024-03-12T20:04:26.564Z,1001.4
2024-03-12T20:05:47.679Z,1001.4
2024-03-12T20:07:08.781Z,1001.4
2024-03-12T20:08:29.899Z,1001.4
2024-03-12T20:09:51.001Z,1001.4
2024-03-12T20:11:12.000Z,1001.4
2024-03-12T20:12:33.223Z,1001.4
2024-03-12T20:13:54.315Z,1001.4
2024-03-12T20:15:14.456Z,1001.4
2024-03-12T20:16:35.557Z,1001.4
2024-03-12T20:17:56.652Z,1001.4
2024-03-12T20:33:17.629Z,1001.5
2024-03-12T20:48:38.581Z,1001.5
2024-03-12T21:03:59.550Z,1001.6
2024-03-12T21:19:20.516Z,1001.6
2024-03-12T21:34:41.456Z,1001.6
2024-03-12T21:50:02.440Z,1001.7
2024-03-12T22:05:23.397Z,1001.7
2024-03-12T22:20:44.361Z,1001.7
2024-03-12T22:36:05.311Z,1001.7
2024-03-12T22:51:26.274Z,1001.8
2024-03-12T23:06:46.263Z,1001.8
2024-03-12T23:22:07.225Z,1001.8
2024-03-12T23:37:28.161Z,1001.8
2024-03-12T23:52:49.149Z,1001.9
